createdAt,value
2023-03-05T00:02:28.442Z,99604.83
2023-03-05T00:05:00.689Z,99602.33
2023-03-05T00:07:32.937Z,99598.55
2023-03-05T00:10:07.623Z,99597.08
2023-03-05T00:12:39.741Z,99592.38
2023-03-05T00:15:13.929Z,99584.66
2023-03-05T00:17:46.071Z,99578.52
2023-03-05T00:20:18.942Z,99577.89
2023-03-05T00:22:51.050Z,99570.10
2023-03-05T00:25:23.152Z,99563.15
2023-03-05T00:27:55.367Z,99559.38
2023-03-05T00:30:27.525Z,99551.80
2023-03-05T00:32:59.704Z,99550.68
2023-03-05T00:35:31.856Z,99553.04
2023-03-05T00:38:04.086Z,99549.97
2023-03-05T00:40:39.860Z,99546.98
2023-03-05T00:43:12.600Z,99547.48
2023-03-05T00:45:44.784Z,99546.36
2023-03-05T00:48:17.676Z,99544.80
2023-03-05T00:50:49.878Z,99544.50
2023-03-05T00:53:22.067Z,99536.70
2023-03-05T00:55:54.539Z,99545.02
2023-03-05T00:58:26.987Z,99537.64
2023-03-05T01:01:02.935Z,99537.98
2023-03-05T01:03:36.700Z,99538.20
2023-03-05T01:06:11.342Z,99532.50
2023-03-05T01:08:44.173Z,99525.13
2023-03-05T01:11:16.900Z,99520.36
2023-03-05T01:13:49.101Z,99512.46
2023-03-05T01:16:21.332Z,99510.70
2023-03-05T01:18:53.513Z,99511.92
2023-03-05T01:21:25.882Z,99509.52
2023-03-05T01:23:58.961Z,99510.22
2023-03-05T01:26:31.207Z,99510.31
2023-03-05T01:29:03.681Z,99511.69
2023-03-05T01:31:35.907Z,99516.06
2023-03-05T01:34:08.177Z,99512.11
2023-03-05T01:36:41.776Z,99509.59
2023-03-05T01:39:14.223Z,99508.98
2023-03-05T01:41:46.317Z,99507.08
2023-03-05T01:44:30.257Z,99502.05
2023-03-05T01:47:03.963Z,99502.00
2023-03-05T01:49:39.653Z,99496.95
2023-03-05T01:52:17.989Z,99493.27
2023-03-05T01:54:54.627Z,99491.66
2023-03-05T01:57:33.333Z,99488.19
2023-03-05T02:00:11.640Z,99484.23
2023-03-05T02:02:49.164Z,99480.90
2023-03-05T02:05:27.220Z,99478.95
2023-03-05T02:08:00.245Z,99477.11
2023-03-05T02:10:35.154Z,99476.52
2023-03-05T02:13:08.171Z,99471.17
2023-03-05T02:15:40.796Z,99471.57
2023-03-05T02:18:13.370Z,99473.08
2023-03-05T02:20:50.582Z,99469.99
2023-03-05T02:23:24.930Z,99470.92
2023-03-05T02:25:57.856Z,99466.20
2023-03-05T02:28:37.023Z,99461.54
2023-03-05T02:31:14.581Z,99459.73
2023-03-05T02:33:47.755Z,99454.39
2023-03-05T02:36:21.028Z,99448.36
2023-03-05T02:38:57.135Z,99446.36
2023-03-05T02:41:29.764Z,99444.95
2023-03-05T02:44:02.500Z,99445.72
2023-03-05T02:46:34.621Z,99444.10
2023-03-05T02:49:06.853Z,99446.33
2023-03-05T02:51:39.187Z,99444.48
2023-03-05T02:54:12.048Z,99445.45
2023-03-05T02:56:44.683Z,99445.93
2023-03-05T02:59:16.883Z,99440.31
2023-03-05T03:01:49.163Z,99441.42
2023-03-05T03:04:21.334Z,99438.71
2023-03-05T03:06:53.564Z,99439.61
2023-03-05T03:09:26.135Z,99433.91
2023-03-05T03:11:58.293Z,99435.84
2023-03-05T03:14:31.857Z,99432.60
2023-03-05T03:17:04.012Z,99429.54
2023-03-05T03:19:36.753Z,99427.09
2023-03-05T03:22:10.893Z,99427.48
2023-03-05T03:24:44.111Z,99423.80
2023-03-05T03:27:16.330Z,99425.63
2023-03-05T03:29:48.579Z,99424.50
2023-03-05T03:32:20.884Z,99422.27
2023-03-05T03:34:52.962Z,99422.35
2023-03-05T03:37:25.177Z,99417.95
2023-03-05T03:39:57.427Z,99411.69
2023-03-05T03:42:29.621Z,99409.87
2023-03-05T03:45:02.580Z,99406.94
2023-03-05T03:47:34.856Z,99402.33
2023-03-05T03:50:08.293Z,99395.58
2023-03-05T03:52:40.376Z,99394.56
2023-03-05T03:55:13.717Z,99389.98
2023-03-05T03:57:46.758Z,99389.30
2023-03-05T04:00:21.016Z,99387.39
2023-03-05T04:02:53.244Z,99386.95
2023-03-05T04:05:25.871Z,99382.48
2023-03-05T04:08:00.051Z,99379.77
2023-03-05T04:10:32.232Z,99374.20
2023-03-05T04:13:04.327Z,99372.48
2023-03-05T04:15:37.083Z,99370.30
2023-03-05T04:18:09.374Z,99368.20
2023-03-05T04:20:41.593Z,99362.86
2023-03-05T04:23:13.735Z,99361.17
2023-03-05T04:25:46.162Z,99352.36
2023-03-05T04:28:18.968Z,99349.59
2023-03-05T04:30:51.364Z,99338.30
2023-03-05T04:33:23.535Z,99328.13
2023-03-05T04:35:56.082Z,99323.52
2023-03-05T04:38:28.506Z,99323.59
2023-03-05T04:41:00.597Z,99320.80
2023-03-05T04:43:32.660Z,99312.02
2023-03-05T04:46:05.006Z,99307.20
2023-03-05T04:48:37.124Z,99308.71
2023-03-05T04:51:09.628Z,99309.29
2023-03-05T04:53:41.772Z,99305.26
2023-03-05T04:56:13.941Z,99300.83
2023-03-05T04:58:46.064Z,99299.64
2023-03-05T05:01:18.225Z,99297.48
2023-03-05T05:03:50.294Z,99292.30
2023-03-05T05:06:22.432Z,99287.10
2023-03-05T05:08:54.547Z,99277.95
2023-03-05T05:11:26.778Z,99264.38
2023-03-05T05:13:58.966Z,99256.07
2023-03-05T05:16:31.265Z,99266.09
2023-03-05T05:19:04.000Z,99270.31
2023-03-05T05:21:36.109Z,99278.91
2023-03-05T05:24:09.200Z,99279.55
2023-03-05T05:26:41.454Z,99284.95
2023-03-05T05:29:13.533Z,99281.39
2023-03-05T05:31:46.468Z,99281.48
2023-03-05T05:34:18.663Z,99285.21
2023-03-05T05:36:50.859Z,99286.51
2023-03-05T05:39:23.134Z,99282.40
2023-03-05T05:41:55.995Z,99291.63
2023-03-05T05:44:28.353Z,99294.90
2023-03-05T05:47:00.507Z,99293.14
2023-03-05T05:49:32.808Z,99292.51
2023-03-05T05:52:05.154Z,99291.09
2023-03-05T05:54:37.531Z,99291.34
2023-03-05T05:57:10.010Z,99283.14
2023-03-05T05:59:42.733Z,99281.42
2023-03-05T06:02:14.860Z,99278.45
2023-03-05T06:04:47.068Z,99276.77
2023-03-05T06:07:19.264Z,99270.02
2023-03-05T06:09:51.385Z,99274.12
2023-03-05T06:12:23.651Z,99274.80
2023-03-05T06:14:56.133Z,99271.39
2023-03-05T06:17:31.059Z,99270.10
2023-03-05T06:20:04.534Z,99275.51
2023-03-05T06:22:38.826Z,99270.10
2023-03-05T06:25:12.617Z,99273.91
2023-03-05T06:27:44.733Z,99277.02
2023-03-05T06:30:17.470Z,99272.89
2023-03-05T06:32:49.724Z,99282.42
2023-03-05T06:35:22.136Z,99281.35
2023-03-05T06:37:54.321Z,99284.63
2023-03-05T06:40:26.665Z,99281.38
2023-03-05T06:42:58.664Z,99284.02
2023-03-05T06:45:30.850Z,99279.79
2023-03-05T06:48:02.932Z,99276.40
2023-03-05T06:50:37.649Z,99275.73
2023-03-05T06:53:09.765Z,99272.49
2023-03-05T06:55:41.957Z,99270.85
2023-03-05T06:58:14.044Z,99268.82
2023-03-05T07:00:46.730Z,99265.27
2023-03-05T07:03:18.784Z,99268.83
2023-03-05T07:05:50.884Z,99265.30
2023-03-05T07:08:23.061Z,99266.14
2023-03-05T07:10:55.199Z,99265.73
2023-03-05T07:13:27.516Z,99272.65
2023-03-05T07:15:59.816Z,99267.16
2023-03-05T07:18:32.185Z,99269.02
2023-03-05T07:21:07.454Z,99273.60
2023-03-05T07:23:39.770Z,99272.83
2023-03-05T07:26:12.353Z,99276.05
2023-03-05T07:28:44.851Z,99273.39
2023-03-05T07:31:20.235Z,99272.70
2023-03-05T07:33:53.107Z,99269.02
2023-03-05T07:36:25.785Z,99267.83
2023-03-05T07:38:57.952Z,99266.63
2023-03-05T07:41:30.401Z,99268.02
2023-03-05T07:44:02.814Z,99266.23
2023-03-05T07:46:36.527Z,99262.29
2023-03-05T07:49:08.839Z,99265.05
2023-03-05T07:51:41.354Z,99265.41
2023-03-05T07:54:13.678Z,99261.50
2023-03-05T07:56:45.922Z,99264.38
2023-03-05T07:59:18.059Z,99262.60
2023-03-05T08:01:50.130Z,99263.38
2023-03-05T08:04:22.447Z,99263.69
2023-03-05T08:06:54.628Z,99262.31
2023-03-05T08:09:26.891Z,99261.56
2023-03-05T08:12:00.648Z,99259.97
2023-03-05T08:14:32.764Z,99260.23
2023-03-05T08:17:07.060Z,99259.59
2023-03-05T08:19:39.281Z,99260.34
2023-03-05T08:22:11.484Z,99257.63
2023-03-05T08:24:43.901Z,99255.86
2023-03-05T08:27:16.014Z,99257.86
2023-03-05T08:29:48.050Z,99250.82
2023-03-05T08:32:20.256Z,99253.70
2023-03-05T08:34:57.278Z,99250.17
2023-03-05T08:37:29.903Z,99254.52
2023-03-05T08:40:02.041Z,99250.24
2023-03-05T08:42:34.297Z,99249.85
2023-03-05T08:45:07.924Z,99249.71
2023-03-05T08:47:40.090Z,99246.98
2023-03-05T08:50:14.695Z,99246.81
2023-03-05T08:52:46.882Z,99242.87
2023-03-05T08:55:19.164Z,99246.70
2023-03-05T08:57:51.399Z,99248.17
2023-03-05T09:00:25.346Z,99250.71
2023-03-05T09:02:58.109Z,99251.13
2023-03-05T09:05:30.387Z,99247.86
2023-03-05T09:08:02.920Z,99248.61
2023-03-05T09:10:35.204Z,99244.42
2023-03-05T09:13:07.899Z,99245.96
2023-03-05T09:15:40.219Z,99240.05
2023-03-05T09:18:12.408Z,99240.76
2023-03-05T09:20:44.574Z,99238.10
2023-03-05T09:23:16.716Z,99235.33
2023-03-05T09:25:49.625Z,99238.52
2023-03-05T09:28:21.973Z,99236.48
2023-03-05T09:30:55.352Z,99233.75
2023-03-05T09:33:27.462Z,99236.84
2023-03-05T09:36:00.196Z,99237.41
2023-03-05T09:38:32.747Z,99233.14
2023-03-05T09:41:15.646Z,99232.69
2023-03-05T09:43:56.217Z,99235.48
2023-03-05T09:46:39.179Z,99232.80
2023-03-05T09:49:19.181Z,99231.97
2023-03-05T09:51:58.795Z,99228.89
2023-03-05T09:54:38.482Z,99227.10
2023-03-05T09:57:18.646Z,99226.02
2023-03-05T09:59:55.716Z,99226.32
2023-03-05T10:02:32.486Z,99223.08
2023-03-05T10:05:14.667Z,99220.59
2023-03-05T10:07:54.669Z,99218.54
2023-03-05T10:10:30.266Z,99216.60
2023-03-05T10:13:06.850Z,99216.86
2023-03-05T10:15:51.661Z,99212.09
2023-03-05T10:18:34.257Z,99217.71
2023-03-05T10:21:10.992Z,99212.43
2023-03-05T10:23:59.977Z,99212.04
2023-03-05T10:26:46.329Z,99209.03
2023-03-05T10:29:40.441Z,99208.08
2023-03-05T10:32:27.610Z,99206.30
2023-03-05T10:35:20.937Z,99204.11
2023-03-05T10:38:08.671Z,99202.39
2023-03-05T10:40:46.974Z,99203.16
2023-03-05T10:43:30.864Z,99204.39
2023-03-05T10:46:05.716Z,99200.46
2023-03-05T10:48:42.416Z,99200.06
2023-03-05T10:51:19.203Z,99193.48
2023-03-05T10:53:56.529Z,99192.97
2023-03-05T10:56:31.923Z,99193.02
2023-03-05T10:59:04.096Z,99190.42
2023-03-05T11:01:37.527Z,99188.14
2023-03-05T11:04:26.314Z,99187.98
2023-03-05T11:06:58.458Z,99185.77
2023-03-05T11:09:32.578Z,99183.59
2023-03-05T11:12:21.349Z,99184.72
2023-03-05T11:15:22.776Z,99187.07
2023-03-05T11:18:24.242Z,99182.15
2023-03-05T11:21:10.940Z,99181.89
2023-03-05T11:23:43.548Z,99178.16
2023-03-05T11:26:24.973Z,99175.59
2023-03-05T11:29:03.312Z,99173.52
2023-03-05T11:31:36.291Z,99173.48
2023-03-05T11:34:24.108Z,99167.91
2023-03-05T11:37:08.142Z,99168.25
2023-03-05T11:39:41.436Z,99169.31
2023-03-05T11:42:19.497Z,99170.27
2023-03-05T11:44:55.964Z,99166.50
2023-03-05T11:47:36.068Z,99165.09
2023-03-05T11:50:23.021Z,99164.14
2023-03-05T11:52:59.227Z,99164.86
2023-03-05T11:55:36.086Z,99161.47
2023-03-05T11:58:25.865Z,99161.23
2023-03-05T12:00:58.598Z,99160.44
2023-03-05T12:03:34.891Z,99156.53
2023-03-05T12:06:17.836Z,99158.46
2023-03-05T12:08:53.938Z,99158.46
2023-03-05T12:11:30.069Z,99149.61
2023-03-05T12:14:07.626Z,99148.70
2023-03-05T12:16:46.333Z,99148.27
2023-03-05T12:19:47.627Z,99143.82
2023-03-05T12:22:23.460Z,99142.64
2023-03-05T12:25:15.489Z,99138.84
2023-03-05T12:27:47.592Z,99140.73
2023-03-05T12:33:38.261Z,99134.16
2023-03-05T12:36:37.861Z,99134.45
2023-03-05T12:39:52.733Z,99129.05
2023-03-05T12:42:45.843Z,99130.46
2023-03-05T12:45:29.704Z,99124.17
2023-03-05T12:48:45.403Z,99120.91
2023-03-05T12:51:31.982Z,99113.52
2023-03-05T12:54:32.188Z,99113.29
2023-03-05T12:57:07.339Z,99109.36
2023-03-05T12:59:46.143Z,99106.73
2023-03-05T13:02:28.143Z,99103.49
2023-03-05T13:05:05.846Z,99108.02
2023-03-05T13:07:38.124Z,99101.23
2023-03-05T13:10:25.318Z,99100.95
2023-03-05T13:12:59.524Z,99095.05
2023-03-05T13:15:32.740Z,99098.70
2023-03-05T13:18:08.586Z,99103.35
2023-03-05T13:20:42.841Z,99104.45
2023-03-05T13:23:21.857Z,99104.63
2023-03-05T13:26:02.810Z,99104.05
2023-03-05T13:28:37.560Z,99103.20
2023-03-05T13:31:18.207Z,99098.04
2023-03-05T13:33:55.323Z,99100.10
2023-03-05T13:36:29.029Z,99099.73
2023-03-05T13:39:03.983Z,99097.47
2023-03-05T13:41:34.708Z,99093.33
2023-03-05T13:44:06.852Z,99096.31
2023-03-05T13:46:41.066Z,99091.64
2023-03-05T13:49:29.533Z,99096.12
2023-03-05T13:52:01.752Z,99094.89
2023-03-05T13:54:34.003Z,99096.70
2023-03-05T13:57:08.692Z,99092.80
2023-03-05T13:59:40.809Z,99096.05
2023-03-05T14:02:21.433Z,99094.25
2023-03-05T14:04:53.597Z,99094.95
2023-03-05T14:07:33.037Z,99091.54
2023-03-05T14:10:05.877Z,99089.88
2023-03-05T14:12:41.098Z,99093.91
2023-03-05T14:15:26.253Z,99094.61
2023-03-05T14:18:21.382Z,99092.25
2023-03-05T14:21:05.779Z,99108.70
2023-03-05T14:23:43.102Z,99109.71
2023-03-05T14:26:23.839Z,99114.69
2023-03-05T14:28:58.461Z,99105.55
2023-03-05T14:31:33.112Z,99110.59
2023-03-05T14:34:07.858Z,99114.41
2023-03-05T14:36:40.782Z,99109.30
2023-03-05T14:39:30.896Z,99106.65
2023-03-05T14:42:29.028Z,99106.76
2023-03-05T14:45:03.383Z,99106.60
2023-03-05T14:47:35.536Z,99110.21
2023-03-05T14:50:11.919Z,99110.83
2023-03-05T14:52:44.448Z,99113.30
2023-03-05T14:55:21.791Z,99116.80
2023-03-05T14:57:56.351Z,99110.52
2023-03-05T15:00:30.062Z,99103.42
2023-03-05T15:03:02.297Z,99101.66
2023-03-05T15:05:34.693Z,99089.30
2023-03-05T15:08:08.382Z,99078.94
2023-03-05T15:10:40.512Z,99069.80
2023-03-05T15:13:17.439Z,99078.95
2023-03-05T15:15:51.583Z,99082.73
2023-03-05T15:18:24.901Z,99077.95
2023-03-05T15:20:57.424Z,99086.49
2023-03-05T15:23:35.479Z,99085.77
2023-03-05T15:26:09.658Z,99079.28
2023-03-05T15:28:42.686Z,99073.84
2023-03-05T15:31:17.501Z,99078.17
2023-03-05T15:33:49.711Z,99086.37
2023-03-05T15:36:21.806Z,99084.15
2023-03-05T15:38:53.969Z,99089.98
2023-03-05T15:41:26.349Z,99088.87
2023-03-05T15:43:58.467Z,99088.39
2023-03-05T15:46:30.832Z,99088.29
2023-03-05T15:49:03.415Z,99090.91
2023-03-05T15:51:35.577Z,99088.59
2023-03-05T15:54:08.288Z,99087.69
2023-03-05T15:56:41.078Z,99089.59
2023-03-05T15:59:14.470Z,99089.87
2023-03-05T16:01:50.250Z,99086.05
2023-03-05T16:04:22.437Z,99081.02
2023-03-05T16:06:54.733Z,99079.85
2023-03-05T16:09:27.758Z,99081.46
2023-03-05T16:11:59.982Z,99083.82
2023-03-05T16:14:33.249Z,99082.11
2023-03-05T16:17:06.829Z,99084.02
2023-03-05T16:19:43.672Z,99085.48
2023-03-05T16:22:15.819Z,99084.48
2023-03-05T16:24:47.897Z,99085.80
2023-03-05T16:27:20.046Z,99085.94
2023-03-05T16:29:52.325Z,99081.08
2023-03-05T16:32:24.658Z,99081.92
2023-03-05T16:34:56.808Z,99083.73
2023-03-05T16:37:29.026Z,99083.89
2023-03-05T16:40:01.773Z,99086.87
2023-03-05T16:42:34.158Z,99089.60
2023-03-05T16:45:08.092Z,99089.88
2023-03-05T16:47:40.412Z,99093.63
2023-03-05T16:50:14.299Z,99097.13
2023-03-05T16:52:46.381Z,99100.50
2023-03-05T16:55:18.796Z,99098.05
2023-03-05T16:57:50.886Z,99104.13
2023-03-05T17:00:24.900Z,99103.21
2023-03-05T17:02:57.081Z,99102.98
2023-03-05T17:05:29.987Z,99106.59
2023-03-05T17:08:04.327Z,99102.16
2023-03-05T17:10:36.621Z,99107.39
2023-03-05T17:13:08.774Z,99111.05
2023-03-05T17:15:40.906Z,99108.05
2023-03-05T17:18:12.945Z,99107.81
2023-03-05T17:20:45.008Z,99105.92
2023-03-05T17:23:17.109Z,99101.95
2023-03-05T17:25:49.521Z,99101.59
2023-03-05T17:28:22.135Z,99103.94
2023-03-05T17:30:54.234Z,99098.86
2023-03-05T17:33:27.162Z,99100.20
2023-03-05T17:35:59.729Z,99100.90
2023-03-05T17:38:32.234Z,99099.99
2023-03-05T17:41:04.387Z,99097.06
2023-03-05T17:43:36.499Z,99098.77
2023-03-05T17:46:08.887Z,99100.27
2023-03-05T17:48:41.736Z,99099.13
2023-03-05T17:51:16.744Z,99098.58
2023-03-05T17:53:47.589Z,99098.16
2023-03-05T17:56:22.215Z,99096.45
2023-03-05T17:58:55.072Z,99098.99
2023-03-05T18:01:30.823Z,99097.62
2023-03-05T18:04:03.329Z,99098.95
2023-03-05T18:06:35.605Z,99097.67
2023-03-05T18:09:07.992Z,99097.08
2023-03-05T18:11:40.164Z,99098.48
2023-03-05T18:14:12.332Z,99096.83
2023-03-05T18:16:44.615Z,99096.08
2023-03-05T18:19:16.832Z,99100.30
2023-03-05T18:21:50.826Z,99099.27
2023-03-05T18:24:22.942Z,99102.46
2023-03-05T18:26:55.101Z,99102.71
2023-03-05T18:29:27.301Z,99104.45
2023-03-05T18:31:59.490Z,99098.87
2023-03-05T18:34:31.617Z,99101.42
2023-03-05T18:37:03.785Z,99101.16
2023-03-05T18:39:35.932Z,99099.76
2023-03-05T18:42:11.761Z,99096.58
2023-03-05T18:44:44.414Z,99094.95
2023-03-05T18:47:16.531Z,99097.24
2023-03-05T18:49:48.802Z,99096.02
2023-03-05T18:52:20.893Z,99092.16
2023-03-05T18:54:53.114Z,99094.09
2023-03-05T18:57:25.159Z,99096.02
2023-03-05T18:59:57.220Z,99095.96
2023-03-05T19:02:30.387Z,99101.94
2023-03-05T19:05:02.920Z,99096.90
2023-03-05T19:07:35.359Z,99100.41
2023-03-05T19:10:10.624Z,99097.61
2023-03-05T19:12:49.997Z,99098.65
2023-03-05T19:15:22.987Z,99098.91
2023-03-05T19:17:56.097Z,99098.27
2023-03-05T19:20:28.258Z,99099.81
2023-03-05T19:23:00.436Z,99100.50
2023-03-05T19:25:33.144Z,99097.48
2023-03-05T19:28:06.203Z,99100.11
2023-03-05T19:30:38.496Z,99100.97
2023-03-05T19:33:10.693Z,99103.61
2023-03-05T19:35:45.000Z,99102.35
2023-03-05T19:38:17.102Z,99100.98
2023-03-05T19:40:49.513Z,99101.61
2023-03-05T19:43:21.677Z,99100.66
2023-03-05T19:45:53.883Z,99103.56
2023-03-05T19:48:26.216Z,99103.71
2023-03-05T19:50:58.386Z,99102.05
2023-03-05T19:53:30.605Z,99104.90
2023-03-05T19:56:07.256Z,99102.02
2023-03-05T19:58:42.789Z,99101.84
2023-03-05T20:01:16.669Z,99099.27
2023-03-05T20:03:50.418Z,99097.20
2023-03-05T20:06:22.828Z,99097.83
2023-03-05T20:08:55.224Z,99098.27
2023-03-05T20:11:28.112Z,99095.37
2023-03-05T20:14:00.972Z,99095.14
2023-03-05T20:16:36.331Z,99096.98
2023-03-05T20:19:10.314Z,99094.36
2023-03-05T20:21:43.463Z,99090.41
2023-03-05T20:24:18.328Z,99087.89
2023-03-05T20:26:50.780Z,99086.14
2023-03-05T20:29:23.048Z,99089.65
2023-03-05T20:31:57.009Z,99088.68
2023-03-05T20:34:31.181Z,99089.71
2023-03-05T20:37:05.086Z,99085.83
2023-03-05T20:39:37.225Z,99085.80
2023-03-05T20:42:09.446Z,99083.25
2023-03-05T20:44:42.610Z,99084.36
2023-03-05T20:47:28.146Z,99080.98
2023-03-05T20:50:00.418Z,99082.84
2023-03-05T20:52:32.841Z,99078.98
2023-03-05T20:55:05.291Z,99076.58
2023-03-05T20:57:37.488Z,99074.98
2023-03-05T21:00:14.109Z,99078.39
2023-03-05T21:02:46.249Z,99076.41
2023-03-05T21:05:20.177Z,99074.93
2023-03-05T21:07:53.051Z,99074.59
2023-03-05T21:10:26.445Z,99074.33
2023-03-05T21:13:00.853Z,99074.85
2023-03-05T21:15:33.594Z,99073.70
2023-03-05T21:18:05.867Z,99069.45
2023-03-05T21:20:38.063Z,99068.41
2023-03-05T21:23:10.199Z,99069.97
2023-03-05T21:25:42.594Z,99071.73
2023-03-05T21:28:18.503Z,99069.08
2023-03-05T21:30:52.982Z,99066.09
2023-03-05T21:33:27.128Z,99068.05
2023-03-05T21:35:59.751Z,99065.31
2023-03-05T21:38:34.144Z,99068.05
2023-03-05T21:41:07.281Z,99068.94
2023-03-05T21:43:39.448Z,99065.82
2023-03-05T21:46:13.127Z,99063.19
2023-03-05T21:48:45.267Z,99068.02
2023-03-05T21:51:17.644Z,99068.69
2023-03-05T21:53:49.702Z,99070.30
2023-03-05T21:56:26.077Z,99068.02
2023-03-05T21:58:58.365Z,99063.23
2023-03-05T22:01:30.605Z,99064.67
2023-03-05T22:04:02.700Z,99063.38
2023-03-05T22:06:34.973Z,99062.75
2023-03-05T22:09:07.269Z,99060.21
2023-03-05T22:11:41.279Z,99060.41
2023-03-05T22:14:16.147Z,99058.29
2023-03-05T22:16:51.976Z,99056.36
2023-03-05T22:19:24.592Z,99057.14
2023-03-05T22:21:57.705Z,99057.02
2023-03-05T22:24:29.879Z,99057.98
2023-03-05T22:27:02.764Z,99054.61
2023-03-05T22:29:34.981Z,99050.73
2023-03-05T22:32:07.604Z,99049.14
2023-03-05T22:34:39.878Z,99048.69
2023-03-05T22:37:12.279Z,99045.89
2023-03-05T22:39:44.472Z,99048.06
2023-03-05T22:42:16.536Z,99049.89
2023-03-05T22:44:48.736Z,99047.21
2023-03-05T22:47:21.000Z,99047.63
2023-03-05T22:49:53.151Z,99043.86
2023-03-05T22:52:25.365Z,99046.00
2023-03-05T22:54:57.558Z,99046.67
2023-03-05T22:57:29.672Z,99043.63
2023-03-05T23:00:02.228Z,99045.73
2023-03-05T23:02:34.448Z,99046.13
2023-03-05T23:05:07.677Z,99042.83
2023-03-05T23:07:41.613Z,99041.30
2023-03-05T23:10:17.001Z,99035.67
2023-03-05T23:12:51.732Z,99037.05
2023-03-05T23:15:26.937Z,99033.79
2023-03-05T23:17:59.276Z,99029.98
2023-03-05T23:20:34.895Z,99032.10
2023-03-05T23:23:07.163Z,99028.84
2023-03-05T23:25:39.320Z,99027.05
2023-03-05T23:28:11.479Z,99026.02
2023-03-05T23:30:43.596Z,99023.81
2023-03-05T23:33:17.827Z,99023.66
2023-03-05T23:35:54.918Z,99022.45
2023-03-05T23:38:28.526Z,99019.41
2023-03-05T23:41:03.502Z,99018.67
2023-03-05T23:43:35.669Z,99014.68
2023-03-05T23:46:13.577Z,99015.55
2023-03-05T23:48:46.017Z,99012.83
2023-03-05T23:51:19.183Z,99010.52
2023-03-05T23:53:51.265Z,99008.25
2023-03-05T23:56:23.422Z,99013.85
2023-03-05T23:59:00.575Z,99013.14
